sensor_id;sensor_type;location;lat;lon;timestamp;P1;durP1;ratioP1;P2;durP2;ratioP2
20861;SDS011;10591;52.532;13.348;2023-02-15T00:00:41;36.60;;;19.50;;
20861;SDS011;10591;52.532;13.348;2023-02-15T00:03:15;37.28;;;19.37;;
20861;SDS011;10591;52.532;13.348;2023-02-15T00:05:46;40.73;;;20.53;;
20861;SDS011;10591;52.532;13.348;2023-02-15T00:08:17;38.53;;;19.50;;
20861;SDS011;10591;52.532;13.348;2023-02-15T00:10:48;34.03;;;18.87;;
20861;SDS011;10591;52.532;13.348;2023-02-15T00:13:19;39.13;;;21.17;;
20861;SDS011;10591;52.532;13.348;2023-02-15T00:15:50;35.52;;;19.62;;
20861;SDS011;10591;52.532;13.348;2023-02-15T00:18:22;34.33;;;19.50;;
20861;SDS011;10591;52.532;13.348;2023-02-15T00:20:56;38.02;;;20.37;;
20861;SDS011;10591;52.532;13.348;2023-02-15T00:23:29;36.20;;;20.70;;
20861;SDS011;10591;52.532;13.348;2023-02-15T00:26:03;40.03;;;21.13;;
20861;SDS011;10591;52.532;13.348;2023-02-15T00:28:37;37.95;;;20.12;;
20861;SDS011;10591;52.532;13.348;2023-02-15T00:31:09;37.98;;;20.02;;
20861;SDS011;10591;52.532;13.348;2023-02-15T00:33:41;37.27;;;20.13;;
20861;SDS011;10591;52.532;13.348;2023-02-15T00:36:14;42.80;;;21.23;;
20861;SDS011;10591;52.532;13.348;2023-02-15T00:38:45;40.53;;;20.97;;
20861;SDS011;10591;52.532;13.348;2023-02-15T00:41:15;36.17;;;19.90;;
20861;SDS011;10591;52.532;13.348;2023-02-15T00:43:46;39.90;;;20.95;;
20861;SDS011;10591;52.532;13.348;2023-02-15T00:46:16;42.03;;;21.97;;
20861;SDS011;10591;52.532;13.348;2023-02-15T00:48:47;38.50;;;21.43;;
20861;SDS011;10591;52.532;13.348;2023-02-15T00:51:18;38.57;;;20.17;;
20861;SDS011;10591;52.532;13.348;2023-02-15T00:53:52;39.90;;;21.17;;
20861;SDS011;10591;52.532;13.348;2023-02-15T00:56:23;39.27;;;20.90;;
20861;SDS011;10591;52.532;13.348;2023-02-15T00:58:53;40.87;;;21.30;;
20861;SDS011;10591;52.532;13.348;2023-02-15T01:01:24;37.50;;;21.17;;
20861;SDS011;10591;52.532;13.348;2023-02-15T01:03:56;40.90;;;21.48;;
20861;SDS011;10591;52.532;13.348;2023-02-15T01:06:26;41.13;;;21.47;;
20861;SDS011;10591;52.532;13.348;2023-02-15T01:08:57;38.97;;;20.27;;
20861;SDS011;10591;52.532;13.348;2023-02-15T01:11:29;37.87;;;21.50;;
20861;SDS011;10591;52.532;13.348;2023-02-15T01:14:00;42.50;;;21.77;;
20861;SDS011;10591;52.532;13.348;2023-02-15T01:16:32;41.48;;;21.62;;
20861;SDS011;10591;52.532;13.348;2023-02-15T01:19:03;42.97;;;22.63;;
20861;SDS011;10591;52.532;13.348;2023-02-15T01:21:34;43.00;;;22.77;;
20861;SDS011;10591;52.532;13.348;2023-02-15T01:24:05;42.77;;;22.70;;
20861;SDS011;10591;52.532;13.348;2023-02-15T01:26:43;42.83;;;22.33;;
20861;SDS011;10591;52.532;13.348;2023-02-15T01:29:14;46.87;;;23.73;;
20861;SDS011;10591;52.532;13.348;2023-02-15T01:31:44;42.10;;;22.45;;
20861;SDS011;10591;52.532;13.348;2023-02-15T01:34:16;45.27;;;23.47;;
20861;SDS011;10591;52.532;13.348;2023-02-15T01:36:46;43.67;;;22.53;;
20861;SDS011;10591;52.532;13.348;2023-02-15T01:39:17;44.90;;;23.17;;
20861;SDS011;10591;52.532;13.348;2023-02-15T01:41:47;46.05;;;23.07;;
20861;SDS011;10591;52.532;13.348;2023-02-15T01:47:16;43.28;;;22.70;;
20861;SDS011;10591;52.532;13.348;2023-02-15T01:49:47;45.87;;;23.13;;
20861;SDS011;10591;52.532;13.348;2023-02-15T01:52:19;43.97;;;23.33;;
20861;SDS011;10591;52.532;13.348;2023-02-15T01:54:50;45.03;;;23.83;;
20861;SDS011;10591;52.532;13.348;2023-02-15T01:57:22;48.40;;;24.53;;
20861;SDS011;10591;52.532;13.348;2023-02-15T01:59:56;49.42;;;25.30;;
20861;SDS011;10591;52.532;13.348;2023-02-15T02:02:28;50.20;;;25.00;;
20861;SDS011;10591;52.532;13.348;2023-02-15T02:07:56;50.00;;;25.50;;
20861;SDS011;10591;52.532;13.348;2023-02-15T02:10:28;49.80;;;25.25;;
20861;SDS011;10591;52.532;13.348;2023-02-15T02:13:00;50.93;;;24.20;;
20861;SDS011;10591;52.532;13.348;2023-02-15T02:15:58;48.03;;;24.70;;
20861;SDS011;10591;52.532;13.348;2023-02-15T02:21:41;52.33;;;26.20;;
20861;SDS011;10591;52.532;13.348;2023-02-15T02:24:23;54.00;;;26.17;;
20861;SDS011;10591;52.532;13.348;2023-02-15T02:33:12;54.42;;;25.82;;
20861;SDS011;10591;52.532;13.348;2023-02-15T02:42:17;50.73;;;25.03;;
20861;SDS011;10591;52.532;13.348;2023-02-15T02:44:54;54.40;;;26.50;;
20861;SDS011;10591;52.532;13.348;2023-02-15T02:47:33;57.60;;;26.57;;
20861;SDS011;10591;52.532;13.348;2023-02-15T02:50:25;53.00;;;25.33;;
20861;SDS011;10591;52.532;13.348;2023-02-15T02:52:54;54.43;;;25.77;;
20861;SDS011;10591;52.532;13.348;2023-02-15T03:01:05;54.63;;;25.20;;
20861;SDS011;10591;52.532;13.348;2023-02-15T03:03:47;55.83;;;26.57;;
20861;SDS011;10591;52.532;13.348;2023-02-15T03:06:20;57.63;;;27.30;;
20861;SDS011;10591;52.532;13.348;2023-02-15T03:09:01;54.77;;;27.00;;
20861;SDS011;10591;52.532;13.348;2023-02-15T03:11:29;62.17;;;27.90;;
20861;SDS011;10591;52.532;13.348;2023-02-15T03:14:01;56.57;;;27.17;;
20861;SDS011;10591;52.532;13.348;2023-02-15T03:16:32;55.23;;;28.37;;
20861;SDS011;10591;52.532;13.348;2023-02-15T03:19:11;55.97;;;26.73;;
20861;SDS011;10591;52.532;13.348;2023-02-15T03:21:51;60.27;;;29.17;;
20861;SDS011;10591;52.532;13.348;2023-02-15T03:24:32;62.20;;;28.23;;
20861;SDS011;10591;52.532;13.348;2023-02-15T03:27:06;62.53;;;28.23;;
20861;SDS011;10591;52.532;13.348;2023-02-15T03:29:38;63.10;;;29.03;;
20861;SDS011;10591;52.532;13.348;2023-02-15T03:32:09;62.77;;;30.03;;
20861;SDS011;10591;52.532;13.348;2023-02-15T03:34:42;64.90;;;29.03;;
20861;SDS011;10591;52.532;13.348;2023-02-15T03:37:18;67.03;;;30.97;;
20861;SDS011;10591;52.532;13.348;2023-02-15T03:39:52;61.57;;;29.07;;
20861;SDS011;10591;52.532;13.348;2023-02-15T03:42:33;72.43;;;32.33;;
20861;SDS011;10591;52.532;13.348;2023-02-15T03:45:16;60.13;;;28.00;;
20861;SDS011;10591;52.532;13.348;2023-02-15T03:47:49;68.80;;;30.82;;
20861;SDS011;10591;52.532;13.348;2023-02-15T03:50:19;64.17;;;29.37;;
20861;SDS011;10591;52.532;13.348;2023-02-15T03:53:11;65.27;;;29.47;;
20861;SDS011;10591;52.532;13.348;2023-02-15T03:55:48;63.47;;;30.13;;
20861;SDS011;10591;52.532;13.348;2023-02-15T03:58:20;60.80;;;28.90;;
20861;SDS011;10591;52.532;13.348;2023-02-15T04:01:13;61.10;;;29.47;;
20861;SDS011;10591;52.532;13.348;2023-02-15T04:04:06;61.03;;;28.80;;
20861;SDS011;10591;52.532;13.348;2023-02-15T04:06:37;64.93;;;28.60;;
20861;SDS011;10591;52.532;13.348;2023-02-15T04:09:08;59.43;;;28.73;;
20861;SDS011;10591;52.532;13.348;2023-02-15T04:11:58;59.23;;;29.13;;
20861;SDS011;10591;52.532;13.348;2023-02-15T04:14:33;57.07;;;27.93;;
20861;SDS011;10591;52.532;13.348;2023-02-15T04:17:21;58.77;;;28.70;;
20861;SDS011;10591;52.532;13.348;2023-02-15T04:19:52;65.13;;;30.67;;
20861;SDS011;10591;52.532;13.348;2023-02-15T04:22:41;55.53;;;28.87;;
20861;SDS011;10591;52.532;13.348;2023-02-15T04:25:29;64.27;;;29.73;;
20861;SDS011;10591;52.532;13.348;2023-02-15T04:28:00;65.67;;;29.73;;
20861;SDS011;10591;52.532;13.348;2023-02-15T04:30:30;66.43;;;29.70;;
20861;SDS011;10591;52.532;13.348;2023-02-15T04:33:01;65.57;;;30.43;;
20861;SDS011;10591;52.532;13.348;2023-02-15T04:35:32;65.00;;;30.30;;
20861;SDS011;10591;52.532;13.348;2023-02-15T04:38:04;65.70;;;29.73;;
20861;SDS011;10591;52.532;13.348;2023-02-15T04:40:34;66.00;;;29.97;;
20861;SDS011;10591;52.532;13.348;2023-02-15T04:43:05;64.87;;;28.30;;
20861;SDS011;10591;52.532;13.348;2023-02-15T04:45:35;61.40;;;29.53;;
20861;SDS011;10591;52.532;13.348;2023-02-15T04:48:06;63.83;;;27.93;;
20861;SDS011;10591;52.532;13.348;2023-02-15T04:50:36;62.10;;;28.40;;
20861;SDS011;10591;52.532;13.348;2023-02-15T04:53:07;66.50;;;30.03;;
20861;SDS011;10591;52.532;13.348;2023-02-15T04:55:37;64.43;;;28.40;;
20861;SDS011;10591;52.532;13.348;2023-02-15T04:58:08;66.60;;;28.03;;
20861;SDS011;10591;52.532;13.348;2023-02-15T05:00:38;69.53;;;28.37;;
20861;SDS011;10591;52.532;13.348;2023-02-15T05:03:09;62.20;;;28.77;;
20861;SDS011;10591;52.532;13.348;2023-02-15T05:05:39;66.20;;;30.10;;
20861;SDS011;10591;52.532;13.348;2023-02-15T05:08:10;64.67;;;29.13;;
20861;SDS011;10591;52.532;13.348;2023-02-15T05:10:40;64.87;;;28.53;;
20861;SDS011;10591;52.532;13.348;2023-02-15T05:13:11;65.07;;;29.17;;
20861;SDS011;10591;52.532;13.348;2023-02-15T05:15:45;64.60;;;28.77;;
20861;SDS011;10591;52.532;13.348;2023-02-15T05:18:18;59.33;;;28.07;;
20861;SDS011;10591;52.532;13.348;2023-02-15T05:20:50;63.97;;;28.50;;
20861;SDS011;10591;52.532;13.348;2023-02-15T05:23:20;64.53;;;28.57;;
20861;SDS011;10591;52.532;13.348;2023-02-15T05:25:51;67.60;;;29.17;;
20861;SDS011;10591;52.532;13.348;2023-02-15T05:28:39;60.77;;;26.57;;
20861;SDS011;10591;52.532;13.348;2023-02-15T05:31:15;69.30;;;28.53;;
20861;SDS011;10591;52.532;13.348;2023-02-15T05:33:48;63.10;;;27.50;;
20861;SDS011;10591;52.532;13.348;2023-02-15T05:36:18;63.70;;;28.10;;
20861;SDS011;10591;52.532;13.348;2023-02-15T05:38:49;62.97;;;29.70;;
20861;SDS011;10591;52.532;13.348;2023-02-15T05:41:20;62.37;;;26.97;;
20861;SDS011;10591;52.532;13.348;2023-02-15T05:43:50;66.87;;;29.70;;
20861;SDS011;10591;52.532;13.348;2023-02-15T05:46:20;62.47;;;27.50;;
20861;SDS011;10591;52.532;13.348;2023-02-15T05:48:51;61.60;;;28.87;;
20861;SDS011;10591;52.532;13.348;2023-02-15T05:51:22;68.63;;;28.90;;
20861;SDS011;10591;52.532;13.348;2023-02-15T05:53:52;72.17;;;28.97;;
20861;SDS011;10591;52.532;13.348;2023-02-15T05:56:23;65.83;;;28.83;;
20861;SDS011;10591;52.532;13.348;2023-02-15T05:58:53;66.50;;;27.40;;
20861;SDS011;10591;52.532;13.348;2023-02-15T06:01:24;65.90;;;29.63;;
20861;SDS011;10591;52.532;13.348;2023-02-15T06:03:55;64.53;;;28.50;;
20861;SDS011;10591;52.532;13.348;2023-02-15T06:06:26;64.73;;;28.53;;
20861;SDS011;10591;52.532;13.348;2023-02-15T06:08:57;67.20;;;28.10;;
20861;SDS011;10591;52.532;13.348;2023-02-15T06:11:27;64.43;;;28.43;;
20861;SDS011;10591;52.532;13.348;2023-02-15T06:13:58;63.13;;;28.40;;
20861;SDS011;10591;52.532;13.348;2023-02-15T06:16:28;71.47;;;30.27;;
20861;SDS011;10591;52.532;13.348;2023-02-15T06:18:59;68.70;;;28.67;;
20861;SDS011;10591;52.532;13.348;2023-02-15T06:21:30;66.73;;;28.73;;
20861;SDS011;10591;52.532;13.348;2023-02-15T06:24:01;64.97;;;28.23;;
20861;SDS011;10591;52.532;13.348;2023-02-15T06:26:32;71.73;;;30.17;;
20861;SDS011;10591;52.532;13.348;2023-02-15T06:29:04;68.07;;;28.60;;
20861;SDS011;10591;52.532;13.348;2023-02-15T06:31:34;76.77;;;30.43;;
20861;SDS011;10591;52.532;13.348;2023-02-15T06:34:05;76.17;;;29.70;;
20861;SDS011;10591;52.532;13.348;2023-02-15T06:36:36;79.17;;;31.20;;
20861;SDS011;10591;52.532;13.348;2023-02-15T06:39:07;78.30;;;30.13;;
20861;SDS011;10591;52.532;13.348;2023-02-15T06:41:38;79.03;;;31.17;;
20861;SDS011;10591;52.532;13.348;2023-02-15T06:44:16;79.07;;;30.73;;
20861;SDS011;10591;52.532;13.348;2023-02-15T06:46:47;77.67;;;30.20;;
20861;SDS011;10591;52.532;13.348;2023-02-15T06:49:17;81.57;;;32.13;;
20861;SDS011;10591;52.532;13.348;2023-02-15T06:51:48;87.17;;;32.93;;
20861;SDS011;10591;52.532;13.348;2023-02-15T06:54:19;83.40;;;31.13;;
20861;SDS011;10591;52.532;13.348;2023-02-15T06:56:50;77.13;;;32.33;;
20861;SDS011;10591;52.532;13.348;2023-02-15T06:59:21;77.10;;;32.43;;
20861;SDS011;10591;52.532;13.348;2023-02-15T07:01:51;83.07;;;34.63;;
20861;SDS011;10591;52.532;13.348;2023-02-15T07:04:22;76.63;;;32.13;;
20861;SDS011;10591;52.532;13.348;2023-02-15T07:06:53;82.00;;;33.90;;
20861;SDS011;10591;52.532;13.348;2023-02-15T07:09:23;84.00;;;32.17;;
20861;SDS011;10591;52.532;13.348;2023-02-15T07:11:59;78.40;;;31.17;;
20861;SDS011;10591;52.532;13.348;2023-02-15T07:14:44;79.73;;;31.23;;
20861;SDS011;10591;52.532;13.348;2023-02-15T07:17:16;78.17;;;30.57;;
20861;SDS011;10591;52.532;13.348;2023-02-15T07:19:49;77.63;;;30.90;;
20861;SDS011;10591;52.532;13.348;2023-02-15T07:22:20;72.30;;;30.80;;
20861;SDS011;10591;52.532;13.348;2023-02-15T07:24:50;83.27;;;31.07;;
20861;SDS011;10591;52.532;13.348;2023-02-15T07:27:23;78.90;;;29.53;;
20861;SDS011;10591;52.532;13.348;2023-02-15T07:29:54;80.87;;;28.83;;
20861;SDS011;10591;52.532;13.348;2023-02-15T07:32:28;81.20;;;31.63;;
20861;SDS011;10591;52.532;13.348;2023-02-15T07:35:00;83.90;;;31.37;;
20861;SDS011;10591;52.532;13.348;2023-02-15T07:37:31;84.13;;;30.80;;
20861;SDS011;10591;52.532;13.348;2023-02-15T07:40:03;79.33;;;28.93;;
20861;SDS011;10591;52.532;13.348;2023-02-15T07:42:36;81.30;;;32.20;;
20861;SDS011;10591;52.532;13.348;2023-02-15T07:45:09;80.33;;;31.37;;
20861;SDS011;10591;52.532;13.348;2023-02-15T07:47:39;79.93;;;31.00;;
20861;SDS011;10591;52.532;13.348;2023-02-15T07:50:10;81.93;;;30.87;;
20861;SDS011;10591;52.532;13.348;2023-02-15T07:52:41;81.17;;;31.73;;
20861;SDS011;10591;52.532;13.348;2023-02-15T07:55:11;80.17;;;31.37;;
20861;SDS011;10591;52.532;13.348;2023-02-15T07:57:44;78.20;;;33.07;;
20861;SDS011;10591;52.532;13.348;2023-02-15T08:00:16;71.17;;;31.40;;
20861;SDS011;10591;52.532;13.348;2023-02-15T08:02:51;68.33;;;29.27;;
20861;SDS011;10591;52.532;13.348;2023-02-15T08:05:43;62.03;;;29.17;;
20861;SDS011;10591;52.532;13.348;2023-02-15T08:08:14;63.93;;;29.03;;
20861;SDS011;10591;52.532;13.348;2023-02-15T08:11:05;58.93;;;27.70;;
20861;SDS011;10591;52.532;13.348;2023-02-15T08:14:07;61.67;;;26.73;;
20861;SDS011;10591;52.532;13.348;2023-02-15T08:16:50;61.03;;;26.40;;
20861;SDS011;10591;52.532;13.348;2023-02-15T08:19:23;63.73;;;26.83;;
20861;SDS011;10591;52.532;13.348;2023-02-15T08:21:56;60.47;;;25.73;;
20861;SDS011;10591;52.532;13.348;2023-02-15T08:24:32;62.93;;;27.47;;
20861;SDS011;10591;52.532;13.348;2023-02-15T08:27:09;65.77;;;27.60;;
20861;SDS011;10591;52.532;13.348;2023-02-15T08:29:40;61.30;;;26.10;;
20861;SDS011;10591;52.532;13.348;2023-02-15T08:32:11;54.93;;;27.13;;
20861;SDS011;10591;52.532;13.348;2023-02-15T08:34:42;58.67;;;26.80;;
20861;SDS011;10591;52.532;13.348;2023-02-15T08:37:13;58.00;;;26.20;;
20861;SDS011;10591;52.532;13.348;2023-02-15T08:39:44;61.33;;;27.03;;
20861;SDS011;10591;52.532;13.348;2023-02-15T08:42:16;57.33;;;25.23;;
20861;SDS011;10591;52.532;13.348;2023-02-15T08:44:46;65.10;;;28.00;;
20861;SDS011;10591;52.532;13.348;2023-02-15T08:47:20;57.97;;;26.50;;
20861;SDS011;10591;52.532;13.348;2023-02-15T08:49:51;60.87;;;26.50;;
20861;SDS011;10591;52.532;13.348;2023-02-15T08:52:21;63.00;;;27.83;;
20861;SDS011;10591;52.532;13.348;2023-02-15T08:54:52;56.13;;;26.43;;
20861;SDS011;10591;52.532;13.348;2023-02-15T08:57:23;64.80;;;26.03;;
20861;SDS011;10591;52.532;13.348;2023-02-15T08:59:54;62.67;;;26.17;;
20861;SDS011;10591;52.532;13.348;2023-02-15T09:04:50;55.07;;;26.67;;
20861;SDS011;10591;52.532;13.348;2023-02-15T09:07:21;58.83;;;26.83;;
20861;SDS011;10591;52.532;13.348;2023-02-15T09:09:52;56.83;;;27.60;;
20861;SDS011;10591;52.532;13.348;2023-02-15T09:12:24;50.40;;;24.73;;
20861;SDS011;10591;52.532;13.348;2023-02-15T09:14:56;47.70;;;23.63;;
20861;SDS011;10591;52.532;13.348;2023-02-15T09:17:26;49.67;;;25.00;;
20861;SDS011;10591;52.532;13.348;2023-02-15T09:19:58;47.80;;;24.03;;
20861;SDS011;10591;52.532;13.348;2023-02-15T09:22:29;51.47;;;24.50;;
20861;SDS011;10591;52.532;13.348;2023-02-15T09:25:00;50.23;;;23.63;;
20861;SDS011;10591;52.532;13.348;2023-02-15T09:27:31;51.57;;;24.17;;
20861;SDS011;10591;52.532;13.348;2023-02-15T09:30:05;52.47;;;24.83;;
20861;SDS011;10591;52.532;13.348;2023-02-15T09:32:37;50.07;;;24.23;;
20861;SDS011;10591;52.532;13.348;2023-02-15T09:35:08;48.60;;;24.73;;
20861;SDS011;10591;52.532;13.348;2023-02-15T09:37:38;51.50;;;24.50;;
20861;SDS011;10591;52.532;13.348;2023-02-15T09:40:13;48.83;;;23.87;;
20861;SDS011;10591;52.532;13.348;2023-02-15T09:46:29;48.37;;;23.10;;
20861;SDS011;10591;52.532;13.348;2023-02-15T09:49:06;50.00;;;25.23;;
20861;SDS011;10591;52.532;13.348;2023-02-15T09:51:41;54.40;;;24.83;;
20861;SDS011;10591;52.532;13.348;2023-02-15T09:54:22;47.97;;;24.40;;
20861;SDS011;10591;52.532;13.348;2023-02-15T09:56:58;44.00;;;23.67;;
20861;SDS011;10591;52.532;13.348;2023-02-15T09:59:43;42.50;;;23.63;;
20861;SDS011;10591;52.532;13.348;2023-02-15T10:05:15;47.43;;;23.50;;
20861;SDS011;10591;52.532;13.348;2023-02-15T10:08:01;46.00;;;23.60;;
20861;SDS011;10591;52.532;13.348;2023-02-15T10:15:57;49.60;;;24.70;;
20861;SDS011;10591;52.532;13.348;2023-02-15T10:18:32;44.43;;;24.80;;
20861;SDS011;10591;52.532;13.348;2023-02-15T10:21:18;47.80;;;25.47;;
20861;SDS011;10591;52.532;13.348;2023-02-15T10:26:40;42.90;;;23.63;;
20861;SDS011;10591;52.532;13.348;2023-02-15T10:32:45;48.90;;;25.20;;
20861;SDS011;10591;52.532;13.348;2023-02-15T10:34:38;51.07;;;24.70;;
20861;SDS011;10591;52.532;13.348;2023-02-15T10:40:11;46.57;;;24.60;;
20861;SDS011;10591;52.532;13.348;2023-02-15T10:43:04;44.50;;;23.63;;
20861;SDS011;10591;52.532;13.348;2023-02-15T10:45:46;41.50;;;23.70;;
20861;SDS011;10591;52.532;13.348;2023-02-15T10:51:20;44.97;;;23.33;;
20861;SDS011;10591;52.532;13.348;2023-02-15T10:59:47;44.13;;;24.77;;
20861;SDS011;10591;52.532;13.348;2023-02-15T11:02:33;43.43;;;23.13;;
20861;SDS011;10591;52.532;13.348;2023-02-15T11:08:06;40.73;;;22.57;;
20861;SDS011;10591;52.532;13.348;2023-02-15T11:10:39;38.07;;;22.03;;
20861;SDS011;10591;52.532;13.348;2023-02-15T11:13:25;38.33;;;22.20;;
20861;SDS011;10591;52.532;13.348;2023-02-15T11:16:03;38.73;;;22.73;;
20861;SDS011;10591;52.532;13.348;2023-02-15T11:18:43;39.77;;;23.17;;
20861;SDS011;10591;52.532;13.348;2023-02-15T11:21:19;42.13;;;23.43;;
20861;SDS011;10591;52.532;13.348;2023-02-15T11:23:51;39.73;;;22.97;;
20861;SDS011;10591;52.532;13.348;2023-02-15T11:29:11;38.00;;;22.87;;
20861;SDS011;10591;52.532;13.348;2023-02-15T11:31:55;42.47;;;22.83;;
20861;SDS011;10591;52.532;13.348;2023-02-15T11:34:31;38.78;;;22.02;;
20861;SDS011;10591;52.532;13.348;2023-02-15T11:37:08;39.37;;;21.90;;
20861;SDS011;10591;52.532;13.348;2023-02-15T11:39:43;42.23;;;23.30;;
20861;SDS011;10591;52.532;13.348;2023-02-15T11:42:17;42.83;;;22.63;;
20861;SDS011;10591;52.532;13.348;2023-02-15T11:47:54;34.57;;;21.13;;
20861;SDS011;10591;52.532;13.348;2023-02-15T11:50:27;34.93;;;21.40;;
20861;SDS011;10591;52.532;13.348;2023-02-15T11:53:01;39.30;;;21.77;;
20861;SDS011;10591;52.532;13.348;2023-02-15T11:55:49;36.93;;;21.83;;
20861;SDS011;10591;52.532;13.348;2023-02-15T12:03:52;37.63;;;22.40;;
20861;SDS011;10591;52.532;13.348;2023-02-15T12:06:37;35.43;;;21.67;;
20861;SDS011;10591;52.532;13.348;2023-02-15T12:11:53;39.55;;;21.02;;
20861;SDS011;10591;52.532;13.348;2023-02-15T12:14:27;37.10;;;20.80;;
20861;SDS011;10591;52.532;13.348;2023-02-15T12:17:02;36.13;;;21.95;;
20861;SDS011;10591;52.532;13.348;2023-02-15T12:19:36;37.98;;;21.70;;
20861;SDS011;10591;52.532;13.348;2023-02-15T12:22:33;36.95;;;22.55;;
20861;SDS011;10591;52.532;13.348;2023-02-15T12:25:20;34.87;;;20.47;;
20861;SDS011;10591;52.532;13.348;2023-02-15T12:31:31;33.47;;;21.10;;
20861;SDS011;10591;52.532;13.348;2023-02-15T12:33:55;33.80;;;20.25;;
20861;SDS011;10591;52.532;13.348;2023-02-15T12:36:39;30.90;;;20.07;;
20861;SDS011;10591;52.532;13.348;2023-02-15T12:44:36;34.80;;;20.03;;
20861;SDS011;10591;52.532;13.348;2023-02-15T12:50:07;29.87;;;19.17;;
20861;SDS011;10591;52.532;13.348;2023-02-15T12:52:50;29.75;;;19.17;;
20861;SDS011;10591;52.532;13.348;2023-02-15T12:55:26;30.15;;;19.40;;
20861;SDS011;10591;52.532;13.348;2023-02-15T12:58:07;30.55;;;19.07;;
20861;SDS011;10591;52.532;13.348;2023-02-15T13:00:45;30.02;;;18.80;;
20861;SDS011;10591;52.532;13.348;2023-02-15T13:03:21;29.52;;;19.73;;
20861;SDS011;10591;52.532;13.348;2023-02-15T13:05:55;24.35;;;17.55;;
20861;SDS011;10591;52.532;13.348;2023-02-15T13:08:31;26.23;;;17.57;;
20861;SDS011;10591;52.532;13.348;2023-02-15T13:11:11;25.97;;;17.82;;
20861;SDS011;10591;52.532;13.348;2023-02-15T13:13:53;26.95;;;17.65;;
20861;SDS011;10591;52.532;13.348;2023-02-15T13:16:31;30.35;;;19.50;;
20861;SDS011;10591;52.532;13.348;2023-02-15T13:22:08;25.77;;;16.30;;
20861;SDS011;10591;52.532;13.348;2023-02-15T13:24:47;22.75;;;16.75;;
20861;SDS011;10591;52.532;13.348;2023-02-15T13:27:23;27.65;;;17.42;;
20861;SDS011;10591;52.532;13.348;2023-02-15T13:29:56;27.98;;;17.87;;
20861;SDS011;10591;52.532;13.348;2023-02-15T13:32:35;26.70;;;16.90;;
20861;SDS011;10591;52.532;13.348;2023-02-15T13:35:13;22.75;;;16.12;;
20861;SDS011;10591;52.532;13.348;2023-02-15T13:40:32;25.65;;;16.52;;
20861;SDS011;10591;52.532;13.348;2023-02-15T13:43:31;28.12;;;17.42;;
20861;SDS011;10591;52.532;13.348;2023-02-15T13:51:38;23.50;;;16.23;;
20861;SDS011;10591;52.532;13.348;2023-02-15T14:03:20;24.98;;;16.95;;
20861;SDS011;10591;52.532;13.348;2023-02-15T14:17:41;25.35;;;17.12;;
20861;SDS011;10591;52.532;13.348;2023-02-15T14:20:39;23.27;;;16.50;;
20861;SDS011;10591;52.532;13.348;2023-02-15T14:23:17;24.02;;;15.75;;
20861;SDS011;10591;52.532;13.348;2023-02-15T14:25:54;24.72;;;16.42;;
20861;SDS011;10591;52.532;13.348;2023-02-15T14:28:35;27.25;;;17.35;;
20861;SDS011;10591;52.532;13.348;2023-02-15T14:31:28;25.17;;;17.75;;
20861;SDS011;10591;52.532;13.348;2023-02-15T14:34:07;26.60;;;18.10;;
20861;SDS011;10591;52.532;13.348;2023-02-15T14:36:43;23.38;;;17.15;;
20861;SDS011;10591;52.532;13.348;2023-02-15T14:42:14;25.00;;;16.30;;
20861;SDS011;10591;52.532;13.348;2023-02-15T14:44:49;22.67;;;16.10;;
20861;SDS011;10591;52.532;13.348;2023-02-15T14:47:37;22.45;;;16.77;;
20861;SDS011;10591;52.532;13.348;2023-02-15T15:01:33;20.43;;;14.73;;
20861;SDS011;10591;52.532;13.348;2023-02-15T15:04:26;24.82;;;16.23;;
20861;SDS011;10591;52.532;13.348;2023-02-15T15:06:55;22.62;;;15.78;;
20861;SDS011;10591;52.532;13.348;2023-02-15T15:09:21;23.57;;;16.13;;
20861;SDS011;10591;52.532;13.348;2023-02-15T15:11:54;25.55;;;18.15;;
20861;SDS011;10591;52.532;13.348;2023-02-15T15:14:44;26.90;;;17.10;;
20861;SDS011;10591;52.532;13.348;2023-02-15T15:22:48;24.25;;;16.90;;
20861;SDS011;10591;52.532;13.348;2023-02-15T15:31:23;25.12;;;16.67;;
20861;SDS011;10591;52.532;13.348;2023-02-15T15:34:05;26.68;;;17.07;;
20861;SDS011;10591;52.532;13.348;2023-02-15T15:48:01;25.88;;;16.42;;
20861;SDS011;10591;52.532;13.348;2023-02-15T15:50:45;24.52;;;17.27;;
20861;SDS011;10591;52.532;13.348;2023-02-15T15:53:22;25.50;;;16.52;;
20861;SDS011;10591;52.532;13.348;2023-02-15T15:55:58;26.90;;;16.52;;
20861;SDS011;10591;52.532;13.348;2023-02-15T15:58:31;23.55;;;16.97;;
20861;SDS011;10591;52.532;13.348;2023-02-15T16:01:04;27.95;;;16.27;;
20861;SDS011;10591;52.532;13.348;2023-02-15T16:03:51;25.45;;;16.23;;
20861;SDS011;10591;52.532;13.348;2023-02-15T16:06:32;22.90;;;15.72;;
20861;SDS011;10591;52.532;13.348;2023-02-15T16:09:16;25.85;;;16.17;;
20861;SDS011;10591;52.532;13.348;2023-02-15T16:11:59;23.93;;;16.17;;
20861;SDS011;10591;52.532;13.348;2023-02-15T16:14:35;25.12;;;16.97;;
20861;SDS011;10591;52.532;13.348;2023-02-15T16:17:14;24.00;;;16.85;;
20861;SDS011;10591;52.532;13.348;2023-02-15T16:19:46;29.90;;;18.30;;
20861;SDS011;10591;52.532;13.348;2023-02-15T16:22:19;34.45;;;19.23;;
20861;SDS011;10591;52.532;13.348;2023-02-15T16:30:18;29.55;;;19.30;;
20861;SDS011;10591;52.532;13.348;2023-02-15T16:33:05;28.85;;;18.95;;
20861;SDS011;10591;52.532;13.348;2023-02-15T16:35:38;26.95;;;18.35;;
20861;SDS011;10591;52.532;13.348;2023-02-15T16:38:11;27.98;;;18.57;;
20861;SDS011;10591;52.532;13.348;2023-02-15T16:40:51;27.73;;;17.98;;
20861;SDS011;10591;52.532;13.348;2023-02-15T16:43:28;29.00;;;18.07;;
20861;SDS011;10591;52.532;13.348;2023-02-15T16:46:06;28.47;;;18.48;;
20861;SDS011;10591;52.532;13.348;2023-02-15T16:48:39;28.40;;;18.85;;
20861;SDS011;10591;52.532;13.348;2023-02-15T16:51:22;28.47;;;18.57;;
20861;SDS011;10591;52.532;13.348;2023-02-15T16:53:54;28.65;;;19.45;;
20861;SDS011;10591;52.532;13.348;2023-02-15T16:56:29;29.40;;;18.77;;
20861;SDS011;10591;52.532;13.348;2023-02-15T16:59:01;29.80;;;18.90;;
20861;SDS011;10591;52.532;13.348;2023-02-15T17:01:32;30.60;;;19.07;;
20861;SDS011;10591;52.532;13.348;2023-02-15T17:04:14;28.38;;;18.17;;
20861;SDS011;10591;52.532;13.348;2023-02-15T17:07:05;32.90;;;20.50;;
20861;SDS011;10591;52.532;13.348;2023-02-15T17:09:40;34.93;;;22.23;;
20861;SDS011;10591;52.532;13.348;2023-02-15T17:15:24;34.92;;;19.90;;
20861;SDS011;10591;52.532;13.348;2023-02-15T17:18:21;32.50;;;21.75;;
20861;SDS011;10591;52.532;13.348;2023-02-15T17:20:50;35.23;;;22.85;;
20861;SDS011;10591;52.532;13.348;2023-02-15T17:26:26;28.55;;;18.77;;
20861;SDS011;10591;52.532;13.348;2023-02-15T17:29:26;31.35;;;20.48;;
20861;SDS011;10591;52.532;13.348;2023-02-15T17:31:53;35.28;;;20.40;;
20861;SDS011;10591;52.532;13.348;2023-02-15T17:34:44;37.93;;;22.25;;
20861;SDS011;10591;52.532;13.348;2023-02-15T17:37:24;32.40;;;22.17;;
20861;SDS011;10591;52.532;13.348;2023-02-15T17:40:16;30.30;;;20.88;;
20861;SDS011;10591;52.532;13.348;2023-02-15T17:42:43;33.30;;;21.90;;